Terminal Aerodrome Forecast
Issued by NWS

Home | Current Version | Previous Version | Text Only | Print | Product List | Glossary Off
Versions: 1 2 3 4 5 6 7 8 9 10 11 12 13 14 15 16 17 18 19 20 21

000
FTUS43 KOAX 022321
TAFCDR
TAF
KCDR 022321Z 0300/0324 18004KT P6SM BKN035
     FM030400 01010KT 1SM -SN BKN006 OVC012
     FM030900 36017G25KT 1SM -SN OVC010=

USA.gov is the U.S. government's official web portal to all federal, state and local government web resources and services.